Latest Weather Observations for Inner Beacon

IDQ60901

Issued at 11:11 pm EST Saturday 25 June 2022 (issued every 10 minutes, with the page automatically refreshed every 10 minutes)

About weather observations | Map of Brisbane area stations | Latest observations for Brisbane area | Other Formats
Station Details ID: 040926 Name: INNER RECIPROCAL MARKER Lat: -27.26 Lon: 153.24 Height: 10.0 m
Data from the previous 72 hours. | See also: Recent months at Inner Beacon
Date/Time
EST
Temp
°C
App
Temp
°C
Dew
Point
°C
Rel
Hum
%
Delta-T
°C
Wind Press
QNH
hPa
Press
MSL
hPa
Rain since
9am
mm
Dir  Spd
km/h
Gust
km/h
Spd
kts
Gust
kts
25/11:00pm - - - - - WSW 9 11 5 6 - - -
25/10:30pm - - - - - WSW 9 9 5 5 - - -
25/10:00pm - - - - - W 9 9 5 5 - - -
25/09:30pm - - - - - W 9 9 5 5 - - -
25/09:00pm - - - - - CALM 0 0 0 0 - - -
25/08:30pm - - - - - ESE 2 2 1 1 - - -
25/08:00pm - - - - - E 4 6 2 3 - - -
25/07:30pm - - - - - E 6 7 3 4 - - -
25/07:00pm - - - - - E 6 7 3 4 - - -
25/06:30pm - - - - - E 4 6 2 3 - - -
25/06:00pm - - - - - E 6 7 3 4 - - -
25/05:30pm - - - - - ENE 7 7 4 4 - - -
25/05:00pm - - - - - ENE 9 11 5 6 - - -
25/04:30pm - - - - - E 6 7 3 4 - - -
25/04:00pm - - - - - E 6 7 3 4 - - -
25/03:30pm - - - - - NE 7 9 4 5 - - -
25/03:00pm - - - - - NE 7 9 4 5 - - -
25/02:30pm - - - - - E 2 7 1 4 - - -
25/02:00pm - - - - - CALM 0 0 0 0 - - -
25/01:30pm - - - - - WSW 2 2 1 1 - - -
25/01:00pm - - - - - W 6 6 3 3 - - -
25/12:30pm - - - - - W 4 6 2 3 - - -
25/12:00pm - - - - - WNW 7 9 4 5 - - -
25/11:30am - - - - - WNW 6 7 3 4 - - -
25/11:00am - - - - - W 6 7 3 4 - - -
25/10:30am - - - - - WSW 7 9 4 5 - - -
25/10:00am - - - - - SSW 7 9 4 5 - - -
25/09:30am - - - - - SW 6 7 3 4 - - -
25/09:00am - - - - - WSW 6 7 3 4 - - -
25/08:30am - - - - - SW 4 6 2 3 - - -
25/08:00am - - - - - SSW 7 7 4 4 - - -
25/07:30am - - - - - S 9 11 5 6 - - -
25/07:00am - - - - - SSW 9 11 5 6 - - -
25/06:30am - - - - - SW 7 9 4 5 - - -
25/06:00am - - - - - W 4 4 2 2 - - -
25/05:30am - - - - - W 9 9 5 5 - - -
25/05:00am - - - - - WSW 9 11 5 6 - - -
25/04:30am - - - - - WSW 9 11 5 6 - - -
25/04:00am - - - - - WSW 4 6 2 3 - - -
25/03:30am - - - - - WSW 9 9 5 5 - - -
25/03:00am - - - - - WNW 4 6 2 3 - - -
25/02:30am - - - - - W 9 9 5 5 - - -
25/02:00am - - - - - NW 7 7 4 4 - - -
25/01:30am - - - - - WNW 7 9 4 5 - - -
25/01:00am - - - - - WNW 6 7 3 4 - - -
25/12:30am - - - - - NW 9 11 5 6 - - -
25/12:00am - - - - - NW 11 13 6 7 - - -
 
Date/Time
EST
Temp
°C
App
Temp
°C
Dew
Point
°C
Rel
Hum
%
Delta-T
°C
Wind Press
QNH
hPa
Press
MSL
hPa
Rain since
9am
mm
Dir  Spd
km/h
Gust
km/h
Spd
kts
Gust
kts
24/11:30pm - - - - - WSW 13 15 7 8 - - -
24/11:00pm - - - - - WNW 15 17 8 9 - - -
24/10:30pm - - - - - NW 15 19 8 10 - - -
24/10:00pm - - - - - NNW 17 19 9 10 - - -
24/09:30pm - - - - - NW 17 20 9 11 - - -
24/09:00pm - - - - - NNW 17 19 9 10 - - -
24/08:30pm - - - - - NW 11 13 6 7 - - -
24/08:00pm - - - - - N 13 15 7 8 - - -
24/07:30pm - - - - - N 13 15 7 8 - - -
24/07:00pm - - - - - N 11 13 6 7 - - -
24/06:30pm - - - - - N 11 13 6 7 - - -
24/06:00pm - - - - - N 13 15 7 8 - - -
24/05:30pm - - - - - N 13 17 7 9 - - -
24/05:00pm - - - - - N 15 17 8 9 - - -
24/04:30pm - - - - - N 15 15 8 8 - - -
24/04:00pm - - - - - N 15 17 8 9 - - -
24/03:30pm - - - - - NNE 13 17 7 9 - - -
24/03:00pm - - - - - NNE 11 15 6 8 - - -
24/02:30pm - - - - - NE 9 11 5 6 - - -
24/02:00pm - - - - - NNE 11 13 6 7 - - -
24/01:30pm - - - - - NE 11 13 6 7 - - -
24/01:00pm - - - - - NE 9 11 5 6 - - -
24/12:30pm - - - - - NNE 9 9 5 5 - - -
24/12:00pm - - - - - NNE 7 7 4 4 - - -
24/11:30am - - - - - N 6 7 3 4 - - -
24/11:00am - - - - - N 6 9 3 5 - - -
24/10:30am - - - - - CALM 0 0 0 0 - - -
24/10:00am - - - - - CALM 0 0 0 0 - - -
24/09:30am - - - - - SW 2 2 1 1 - - -
24/09:00am - - - - - SW 6 7 3 4 - - -
24/08:30am - - - - - SW 6 7 3 4 - - -
24/08:00am - - - - - SW 7 9 4 5 - - -
24/07:30am - - - - - SW 7 7 4 4 - - -
24/07:00am - - - - - SW 7 7 4 4 - - -
24/06:30am - - - - - SW 7 9 4 5 - - -
24/06:00am - - - - - SSW 7 7 4 4 - - -
24/05:30am - - - - - SW 9 11 5 6 - - -
24/05:00am - - - - - WSW 6 7 3 4 - - -
24/04:30am - - - - - SW 6 7 3 4 - - -
24/04:00am - - - - - SSW 7 9 4 5 - - -
24/03:30am - - - - - SW 9 11 5 6 - - -
24/03:00am - - - - - SW 9 11 5 6 - - -
24/02:30am - - - - - WSW 9 11 5 6 - - -
24/02:00am - - - - - WSW 7 9 4 5 - - -
24/01:30am - - - - - WSW 9 11 5 6 - - -
24/01:00am - - - - - WSW 9 9 5 5 - - -
24/12:30am - - - - - W 11 11 6 6 - - -
24/12:00am - - - - - W 9 11 5 6 - - -
 
Date/Time
EST
Temp
°C
App
Temp
°C
Dew
Point
°C
Rel
Hum
%
Delta-T
°C
Wind Press
QNH
hPa
Press
MSL
hPa
Rain since
9am
mm
Dir  Spd
km/h
Gust
km/h
Spd
kts
Gust
kts
23/11:30pm - - - - - W 9 11 5 6 - - -
23/11:00pm - - - - - W 9 9 5 5 - - -
23/10:30pm - - - - - W 9 11 5 6 - - -
23/10:00pm - - - - - WNW 7 11 4 6 - - -
23/09:30pm - - - - - W 7 9 4 5 - - -
23/09:00pm - - - - - NW 7 7 4 4 - - -
23/08:30pm - - - - - N 6 6 3 3 - - -
23/08:00pm - - - - - NE 7 9 4 5 - - -
23/07:30pm - - - - - NE 7 9 4 5 - - -
23/07:00pm - - - - - ENE 7 9 4 5 - - -
23/06:30pm - - - - - ENE 7 7 4 4 - - -
23/06:00pm - - - - - ENE 6 7 3 4 - - -
23/05:30pm - - - - - ENE 6 7 3 4 - - -
23/05:00pm - - - - - E 6 6 3 3 - - -
23/04:30pm - - - - - E 6 6 3 3 - - -
23/04:00pm - - - - - CALM 0 0 0 0 - - -
23/03:30pm - - - - - CALM 0 0 0 0 - - -
23/03:00pm - - - - - CALM 0 0 0 0 - - -
23/02:30pm - - - - - CALM 0 2 0 1 - - -
23/02:00pm - - - - - CALM 0 0 0 0 - - -
23/01:30pm - - - - - CALM 0 0 0 0 - - -
23/01:00pm - - - - - SSW 4 4 2 2 - - -
23/12:30pm - - - - - SSW 6 7 3 4 - - -
23/12:00pm - - - - - SSW 6 6 3 3 - - -
23/11:30am - - - - - SW 7 9 4 5 - - -
23/11:00am - - - - - SW 9 11 5 6 - - -
23/10:30am - - - - - SW 11 13 6 7 - - -
23/10:00am - - - - - SW 15 17 8 9 - - -
23/09:30am - - - - - SSW 17 19 9 10 - - -
23/09:00am - - - - - SSW 17 20 9 11 - - -
23/08:30am - - - - - SSW 17 19 9 10 - - -
23/08:00am - - - - - SSW 17 19 9 10 - - -
23/07:30am - - - - - SSW 19 20 10 11 - - -
23/07:00am - - - - - SW 17 19 9 10 - - -
23/06:30am - - - - - SW 15 17 8 9 - - -
23/06:00am - - - - - SSW 19 22 10 12 - - -
23/05:30am - - - - - SSW 20 24 11 13 - - -
23/05:00am - - - - - S 19 20 10 11 - - -
23/04:30am - - - - - S 19 22 10 12 - - -
23/04:00am - - - - - SSW 13 15 7 8 - - -
23/03:30am - - - - - SSW 15 19 8 10 - - -
23/03:00am - - - - - SSW 13 15 7 8 - - -
23/02:30am - - - - - SW 15 17 8 9 - - -
23/02:00am - - - - - SW 15 17 8 9 - - -
23/01:30am - - - - - SW 15 17 8 9 - - -
23/01:00am - - - - - WSW 13 17 7 9 - - -
23/12:30am - - - - - WSW 11 13 6 7 - - -
23/12:00am - - - - - WSW 11 13 6 7 - - -
 
Date/Time
EST
Temp
°C
App
Temp
°C
Dew
Point
°C
Rel
Hum
%
Delta-T
°C
Wind Press
QNH
hPa
Press
MSL
hPa
Rain since
9am
mm
Dir  Spd
km/h
Gust
km/h
Spd
kts
Gust
kts
22/11:30pm - - - - - W 11 13 6 7 - - -

Latest Capital City Observations: Canberra | Sydney | Melbourne | Brisbane | Adelaide | Perth | Hobart | Darwin

Other formats

Comma delimited format used in spreadsheet applications
http://www.bom.gov.au/fwo/IDQ60901/IDQ60901.94590.axf

JavaScript Object Notation format (JSON) in row-major order
http://www.bom.gov.au/fwo/IDQ60901/IDQ60901.94590.json

Data quality

Most of these data are generated automatically and are frequently updated. Quality checks on data are not normally performed. It is possible for incorrect values to appear. Refer to information at About Latest Weather Observations and please check the disclaimer before using these data.